Time;durP1;ratioP1;P1;durP2;ratioP2;P2;SDS_P1;SDS_P2;PMS_P1;PMS_P2;Temp;Humidity;BMP_temperature;BMP_pressure;BME280_temperature;BME280_humidity;BME280_pressure;Samples;Min_cycle;Max_cycle;Signal;HPM_P1;HPM_P2
2022/05/07 00:01:55;;;;;;;12.70;11.63;;;12.10;99.90;;;;;;6155318;23;20222;-91
2022/05/07 00:04:24;;;;;;;12.65;11.60;;;12.10;99.90;;;;;;6118177;23;20269;-91
2022/05/07 00:06:51;;;;;;;12.35;11.35;;;12.10;99.90;;;;;;6151494;23;20238;-91
2022/05/07 00:09:19;;;;;;;11.90;10.80;;;12.10;99.90;;;;;;6150494;23;20601;-91
2022/05/07 00:11:47;;;;;;;11.35;10.45;;;12.10;99.90;;;;;;6150341;23;20221;-92
2022/05/07 00:14:14;;;;;;;13.15;11.95;;;12.00;99.90;;;;;;6151777;23;20198;-91
2022/05/07 00:19:28;;;;;;;11.85;10.82;;;11.90;99.90;;;;;;6152036;23;20214;-91
2022/05/07 00:21:55;;;;;;;11.60;10.63;;;11.70;99.90;;;;;;6122515;23;20609;-90
2022/05/07 00:24:22;;;;;;;11.70;10.80;;;11.70;99.90;;;;;;6135469;23;20191;-90
2022/05/07 00:26:49;;;;;;;12.00;11.05;;;11.50;99.90;;;;;;6142128;23;20223;-90
2022/05/07 00:29:17;;;;;;;12.02;10.90;;;11.40;99.90;;;;;;6119870;23;20191;-91
2022/05/07 00:31:44;;;;;;;11.77;9.82;;;11.40;99.90;;;;;;6136573;23;20214;-91
2022/05/07 00:34:11;;;;;;;11.52;10.40;;;11.40;99.90;;;;;;6146069;23;20195;-91
2022/05/07 00:36:39;;;;;;;11.30;10.30;;;11.30;99.90;;;;;;6151015;23;20203;-91
2022/05/07 00:39:06;;;;;;;11.50;10.60;;;11.30;99.90;;;;;;6124754;22;20221;-86
2022/05/07 00:41:33;;;;;;;11.07;10.07;;;11.40;99.90;;;;;;6115717;23;20229;-86
2022/05/07 00:44:00;;;;;;;11.90;10.80;;;11.30;99.90;;;;;;6119390;23;20599;-86
2022/05/07 00:46:28;;;;;;;11.45;10.48;;;11.30;99.90;;;;;;6135831;23;20286;-86
2022/05/07 00:48:57;;;;;;;12.27;10.05;;;11.30;99.90;;;;;;6139173;23;20610;-86
2022/05/07 00:51:33;;;;;;;12.65;11.45;;;11.30;99.90;;;;;;6143137;23;20202;-86
2022/05/07 00:54:03;;;;;;;11.30;10.27;;;11.30;99.90;;;;;;6136078;23;20190;-86
2022/05/07 00:56:31;;;;;;;11.75;10.65;;;11.30;99.90;;;;;;6145544;23;20757;-85
2022/05/07 00:58:59;;;;;;;12.45;11.25;;;11.20;99.90;;;;;;6138984;23;20201;-86
2022/05/07 01:01:26;;;;;;;12.85;11.70;;;11.10;99.90;;;;;;6138728;23;20218;-87
2022/05/07 01:03:54;;;;;;;11.73;10.60;;;11.10;99.90;;;;;;6146031;23;20194;-86
2022/05/07 01:06:21;;;;;;;12.23;11.13;;;11.00;99.90;;;;;;6145962;23;20238;-86
2022/05/07 01:08:50;;;;;;;13.27;12.07;;;11.00;99.90;;;;;;6133135;23;20284;-86
2022/05/07 01:11:19;;;;;;;12.95;11.85;;;11.00;99.90;;;;;;6129759;23;20274;-86
2022/05/07 01:13:47;;;;;;;12.73;11.63;;;11.00;99.90;;;;;;6144521;23;20190;-86
2022/05/07 01:16:14;;;;;;;13.07;11.88;;;11.00;99.90;;;;;;6140293;23;20380;-86
2022/05/07 01:18:43;;;;;;;12.88;11.75;;;11.10;99.90;;;;;;6144668;23;20225;-86
2022/05/07 01:21:12;;;;;;;13.38;12.20;;;11.00;99.90;;;;;;6131261;23;20234;-86
2022/05/07 01:23:40;;;;;;;14.07;12.85;;;11.00;99.90;;;;;;6145153;23;20273;-87
2022/05/07 01:26:08;;;;;;;14.77;13.52;;;10.90;99.90;;;;;;6140822;23;20200;-86
2022/05/07 01:28:35;;;;;;;14.82;13.30;;;10.80;99.90;;;;;;6144581;23;20616;-86
2022/05/07 01:31:02;;;;;;;13.90;12.70;;;10.80;99.90;;;;;;6144329;23;20285;-86
2022/05/07 01:33:30;;;;;;;14.93;13.63;;;10.80;99.90;;;;;;6143758;23;20272;-86
2022/05/07 01:35:57;;;;;;;14.85;13.65;;;10.70;99.90;;;;;;6142738;23;20233;-86
2022/05/07 01:38:27;;;;;;;15.20;13.73;;;10.80;99.90;;;;;;6127703;23;21089;-86
2022/05/07 01:40:54;;;;;;;14.15;12.95;;;10.70;99.90;;;;;;6137773;23;20247;-86
2022/05/07 01:43:21;;;;;;;13.60;12.40;;;10.70;99.90;;;;;;6133654;23;20763;-86
2022/05/07 01:45:48;;;;;;;15.13;13.70;;;10.70;99.90;;;;;;6131244;23;20380;-86
2022/05/07 01:48:14;;;;;;;16.27;14.77;;;10.70;99.90;;;;;;6141106;23;20645;-87
2022/05/07 01:50:43;;;;;;;15.73;14.13;;;10.70;99.90;;;;;;6133693;23;20219;-86
2022/05/07 01:53:12;;;;;;;13.63;12.40;;;10.60;99.90;;;;;;6137025;23;21049;-86
2022/05/07 01:55:40;;;;;;;14.88;13.68;;;10.60;99.90;;;;;;6133037;23;20213;-86
2022/05/07 01:58:07;;;;;;;14.90;13.40;;;10.60;99.90;;;;;;6137409;23;20223;-86
2022/05/07 02:00:35;;;;;;;14.02;12.73;;;10.60;99.90;;;;;;6142739;23;20199;-86
2022/05/07 02:03:02;;;;;;;14.52;13.15;;;10.60;99.90;;;;;;6146850;23;20190;-86
2022/05/07 02:05:30;;;;;;;14.23;13.05;;;10.50;99.90;;;;;;6147634;23;20248;-86
2022/05/07 02:07:57;;;;;;;14.23;13.02;;;10.50;99.90;;;;;;6132923;23;20804;-86
2022/05/07 02:10:24;;;;;;;14.15;12.85;;;10.50;99.90;;;;;;6127237;23;20637;-85
2022/05/07 02:12:53;;;;;;;13.90;12.70;;;10.50;99.90;;;;;;6137241;23;20194;-86
2022/05/07 02:15:20;;;;;;;13.27;12.18;;;10.50;99.90;;;;;;6137956;23;20284;-86
2022/05/07 02:17:47;;;;;;;13.60;12.50;;;10.50;99.90;;;;;;6140706;23;20675;-86
2022/05/07 02:20:14;;;;;;;13.63;12.50;;;10.50;99.90;;;;;;6126805;23;20561;-86
2022/05/07 02:22:41;;;;;;;11.98;11.07;;;10.40;99.90;;;;;;6137248;23;20226;-86
2022/05/07 02:25:09;;;;;;;14.07;12.68;;;10.40;99.90;;;;;;6136041;23;20240;-86
2022/05/07 02:27:36;;;;;;;12.60;11.50;;;10.30;99.90;;;;;;6145465;23;20194;-86
2022/05/07 02:30:06;;;;;;;13.23;11.93;;;10.30;99.90;;;;;;6136614;23;20270;-85
2022/05/07 02:32:32;;;;;;;13.02;11.82;;;10.30;99.90;;;;;;6139730;23;20199;-86
2022/05/07 02:34:59;;;;;;;13.73;12.38;;;10.30;99.90;;;;;;6136481;23;20209;-86
2022/05/07 02:37:27;;;;;;;12.02;11.02;;;10.30;99.90;;;;;;6139837;23;20324;-86
2022/05/07 02:39:54;;;;;;;14.10;12.80;;;10.30;99.90;;;;;;6131282;23;20222;-86
2022/05/07 02:42:36;;;;;;;12.40;11.40;;;10.30;99.90;;;;;;6142385;23;20691;-86
2022/05/07 02:45:07;;;;;;;12.80;11.60;;;10.20;99.90;;;;;;6140396;23;20287;-86
2022/05/07 02:47:34;;;;;;;13.07;11.88;;;10.20;99.90;;;;;;6139438;23;20244;-86
2022/05/07 02:50:02;;;;;;;13.77;12.55;;;10.20;99.90;;;;;;6146712;23;20187;-86
2022/05/07 02:52:32;;;;;;;13.80;12.50;;;10.20;99.90;;;;;;6135299;23;20205;-87
2022/05/07 02:55:02;;;;;;;13.98;12.57;;;10.10;99.90;;;;;;6119355;23;20285;-86
2022/05/07 02:57:29;;;;;;;13.15;11.95;;;10.10;99.90;;;;;;6135344;23;20201;-87
2022/05/07 02:59:57;;;;;;;12.80;11.70;;;10.10;99.90;;;;;;6163373;23;20197;-87
2022/05/07 03:02:25;;;;;;;12.85;11.60;;;10.10;99.90;;;;;;6177573;23;20201;-86
2022/05/07 03:05:08;;;;;;;13.13;11.93;;;10.10;99.90;;;;;;6155054;23;20744;-86
2022/05/07 03:07:35;;;;;;;13.10;12.00;;;10.10;99.90;;;;;;6141323;23;20300;-86
2022/05/07 03:10:03;;;;;;;14.38;12.50;;;10.00;99.90;;;;;;6145002;23;20198;-86
2022/05/07 03:12:30;;;;;;;12.57;11.38;;;10.00;99.90;;;;;;6135321;23;20456;-86
2022/05/07 03:14:57;;;;;;;13.88;12.45;;;10.00;99.90;;;;;;6141160;23;20216;-86
2022/05/07 03:17:26;;;;;;;12.52;11.48;;;9.90;99.90;;;;;;6135604;23;20187;-86
2022/05/07 03:19:53;;;;;;;13.02;11.93;;;9.90;99.90;;;;;;6106531;23;20198;-86
2022/05/07 03:22:20;;;;;;;13.88;12.60;;;9.90;99.90;;;;;;6148693;23;20296;-86
2022/05/07 03:24:48;;;;;;;14.05;12.75;;;9.90;99.90;;;;;;6139146;23;20213;-86
2022/05/07 03:27:15;;;;;;;12.25;11.18;;;9.90;99.90;;;;;;6137022;23;20265;-86
2022/05/07 03:29:42;;;;;;;12.98;11.77;;;9.80;99.90;;;;;;6131634;23;20435;-86
2022/05/07 03:32:10;;;;;;;12.88;11.57;;;9.80;99.90;;;;;;6138763;23;20319;-86
2022/05/07 03:34:38;;;;;;;13.55;12.25;;;9.80;99.90;;;;;;6154912;23;20307;-87
2022/05/07 03:37:06;;;;;;;13.60;12.30;;;9.70;99.90;;;;;;6146985;23;20229;-86
2022/05/07 03:39:35;;;;;;;12.68;11.57;;;9.80;99.90;;;;;;6134513;23;20275;-86
2022/05/07 03:42:02;;;;;;;15.75;12.70;;;9.70;99.90;;;;;;6133008;23;20217;-87
2022/05/07 03:44:29;;;;;;;13.32;12.02;;;9.70;99.90;;;;;;6139465;23;20282;-86
2022/05/07 03:46:56;;;;;;;14.35;12.95;;;9.70;99.90;;;;;;6145227;23;20200;-87
2022/05/07 03:49:23;;;;;;;14.68;13.38;;;9.70;99.90;;;;;;6138436;23;20193;-87
2022/05/07 03:54:36;;;;;;;13.52;12.25;;;9.60;99.90;;;;;;6135909;23;22125;-86
2022/05/07 03:57:04;;;;;;;13.60;12.23;;;9.60;99.90;;;;;;6132862;23;20192;-87
2022/05/07 03:59:31;;;;;;;13.52;12.27;;;9.50;99.90;;;;;;6139191;23;20261;-87
2022/05/07 04:01:58;;;;;;;14.57;13.18;;;9.50;99.90;;;;;;6139875;23;21509;-86
2022/05/07 04:04:25;;;;;;;14.90;13.40;;;9.40;99.90;;;;;;6146522;23;20269;-87
2022/05/07 04:06:53;;;;;;;14.40;13.10;;;9.30;99.90;;;;;;6145961;23;20223;-86
2022/05/07 04:09:20;;;;;;;14.45;13.05;;;9.40;99.90;;;;;;6139050;23;20196;-87
2022/05/07 04:11:47;;;;;;;13.70;12.50;;;9.30;99.90;;;;;;6140235;23;20227;-87
2022/05/07 04:14:14;;;;;;;15.45;13.98;;;9.30;99.90;;;;;;6132264;23;20220;-87
2022/05/07 04:16:42;;;;;;;15.48;14.18;;;9.20;99.90;;;;;;6148839;23;20196;-87
2022/05/07 04:19:11;;;;;;;15.05;13.65;;;9.20;99.90;;;;;;6142658;23;20593;-87
2022/05/07 04:21:38;;;;;;;14.93;13.63;;;9.10;99.90;;;;;;6136436;23;20281;-87
2022/05/07 04:24:07;;;;;;;14.40;12.90;;;9.20;99.90;;;;;;6130270;23;20201;-87
2022/05/07 04:26:34;;;;;;;14.80;13.40;;;9.20;99.90;;;;;;6147538;23;20222;-87
2022/05/07 04:29:02;;;;;;;18.50;14.15;;;9.10;99.90;;;;;;6130267;23;20550;-87
2022/05/07 04:31:29;;;;;;;14.90;13.52;;;9.10;99.90;;;;;;6133227;23;21358;-87
2022/05/07 04:33:56;;;;;;;14.07;12.68;;;9.10;99.90;;;;;;6142308;23;20231;-87
2022/05/07 04:36:23;;;;;;;15.00;13.55;;;9.10;99.90;;;;;;6146514;23;20326;-87
2022/05/07 04:38:50;;;;;;;13.55;12.35;;;9.20;99.90;;;;;;6144992;23;20239;-87
2022/05/07 04:41:18;;;;;;;12.68;11.57;;;9.10;99.90;;;;;;6125075;23;20655;-87
2022/05/07 04:43:45;;;;;;;12.98;11.68;;;9.20;99.90;;;;;;6142921;23;20639;-87
2022/05/07 04:46:13;;;;;;;12.88;11.77;;;9.20;99.90;;;;;;6134453;23;20219;-86
2022/05/07 04:48:41;;;;;;;12.20;11.10;;;9.20;99.90;;;;;;6137838;23;20185;-87
2022/05/07 04:51:08;;;;;;;12.55;11.45;;;9.10;99.90;;;;;;6140229;23;20191;-87
2022/05/07 04:53:35;;;;;;;13.70;12.48;;;9.20;99.90;;;;;;6139702;23;20220;-87
2022/05/07 04:56:02;;;;;;;12.35;11.20;;;9.20;99.90;;;;;;6133292;23;20711;-87
2022/05/07 04:58:30;;;;;;;11.93;10.82;;;9.30;99.90;;;;;;6142231;23;20652;-87
2022/05/07 05:00:57;;;;;;;12.18;11.07;;;9.40;99.90;;;;;;6134430;23;20214;-88
2022/05/07 05:03:24;;;;;;;11.40;10.50;;;9.50;99.90;;;;;;6149232;23;20245;-88
2022/05/07 05:05:51;;;;;;;12.55;11.25;;;9.50;99.90;;;;;;6151365;23;20216;-87
2022/05/07 05:08:18;;;;;;;11.90;10.90;;;9.50;99.90;;;;;;6145142;23;20251;-87
2022/05/07 05:10:45;;;;;;;11.60;10.50;;;9.60;99.90;;;;;;6142570;23;20647;-87
2022/05/07 05:13:12;;;;;;;11.75;10.70;;;9.60;99.90;;;;;;6116367;23;20193;-88
2022/05/07 05:15:40;;;;;;;12.50;11.27;;;9.60;99.90;;;;;;6139043;23;20287;-88
2022/05/07 05:18:08;;;;;;;11.77;10.77;;;9.70;99.90;;;;;;6140869;23;20281;-88
2022/05/07 05:20:34;;;;;;;11.77;10.77;;;9.80;99.90;;;;;;6143996;23;20268;-88
2022/05/07 05:23:02;;;;;;;10.95;9.95;;;9.90;99.90;;;;;;6139874;23;20214;-88
2022/05/07 05:25:29;;;;;;;10.35;9.55;;;10.00;99.90;;;;;;6139508;23;20595;-89
2022/05/07 05:27:56;;;;;;;11.73;10.73;;;10.00;99.90;;;;;;6138397;23;20200;-87
2022/05/07 05:30:24;;;;;;;12.70;11.50;;;10.10;99.90;;;;;;6111899;23;20824;-88
2022/05/07 05:32:52;;;;;;;11.75;10.75;;;10.20;99.90;;;;;;6147253;23;20586;-88
2022/05/07 05:35:19;;;;;;;11.02;10.05;;;10.20;99.90;;;;;;6151024;23;20224;-88
2022/05/07 05:37:46;;;;;;;11.27;10.18;;;10.30;99.90;;;;;;6177967;23;20194;-88
2022/05/07 05:40:13;;;;;;;12.30;11.30;;;10.30;99.90;;;;;;6176406;23;20175;-88
2022/05/07 05:42:40;;;;;;;13.52;12.40;;;10.40;99.90;;;;;;6157389;23;20225;-88
2022/05/07 05:45:09;;;;;;;12.57;11.57;;;10.50;99.90;;;;;;6153689;23;20231;-87
2022/05/07 05:47:36;;;;;;;12.05;11.05;;;10.50;99.90;;;;;;6143833;23;20182;-88
2022/05/07 05:50:06;;;;;;;12.70;11.68;;;10.50;99.90;;;;;;6169560;23;20222;-88
2022/05/07 05:52:33;;;;;;;13.55;12.32;;;10.60;99.90;;;;;;6166043;23;20207;-88
2022/05/07 05:55:00;;;;;;;14.85;13.55;;;10.70;99.90;;;;;;6166339;23;20297;-87
2022/05/07 05:57:27;;;;;;;14.48;13.23;;;10.70;99.90;;;;;;6154137;23;20175;-87
2022/05/07 05:59:54;;;;;;;14.73;13.48;;;10.70;99.90;;;;;;6171329;23;20595;-88
2022/05/07 06:02:22;;;;;;;14.63;13.20;;;10.80;99.90;;;;;;6153903;23;20217;-94
2022/05/07 06:04:51;;;;;;;14.52;13.32;;;10.80;99.90;;;;;;6149919;23;20628;-88
2022/05/07 06:07:22;;;;;;;14.40;13.20;;;10.90;99.90;;;;;;6146162;23;20606;-88
2022/05/07 06:09:49;;;;;;;12.95;11.85;;;10.90;99.90;;;;;;6143090;23;20193;-88
2022/05/07 06:12:16;;;;;;;13.52;12.43;;;11.10;99.90;;;;;;6146107;23;20714;-90
2022/05/07 06:14:44;;;;;;;14.82;13.63;;;11.10;99.90;;;;;;6139718;23;20744;-86
2022/05/07 06:17:11;;;;;;;12.80;11.60;;;11.30;99.90;;;;;;6143436;23;20191;-82
2022/05/07 06:19:37;;;;;;;13.80;12.70;;;11.40;99.90;;;;;;6132245;23;20207;-89
2022/05/07 06:22:05;;;;;;;14.45;13.25;;;11.60;99.90;;;;;;6136115;23;20179;-85
2022/05/07 06:27:31;;;;;;;13.75;12.55;;;11.80;99.90;;;;;;6147198;23;20223;-91
2022/05/07 06:30:01;;;;;;;13.80;12.70;;;11.80;99.90;;;;;;6131435;23;20191;-91
2022/05/07 06:32:32;;;;;;;13.60;12.50;;;11.90;99.90;;;;;;6141004;23;20183;-89
2022/05/07 06:35:04;;;;;;;13.88;12.65;;;12.00;99.90;;;;;;6158822;23;20218;-90
2022/05/07 06:37:32;;;;;;;14.10;12.70;;;12.10;99.90;;;;;;6155668;23;20663;-90
2022/05/07 06:40:03;;;;;;;13.85;12.65;;;12.20;99.90;;;;;;6147517;23;20592;-90
2022/05/07 06:42:30;;;;;;;14.25;12.95;;;12.40;99.90;;;;;;6131430;23;20701;-91
2022/05/07 06:45:02;;;;;;;13.00;12.00;;;12.50;99.90;;;;;;6137457;23;20313;-90
2022/05/07 06:47:29;;;;;;;14.13;12.93;;;12.70;99.90;;;;;;6148906;23;20190;-91
2022/05/07 06:49:56;;;;;;;13.68;12.57;;;12.80;99.90;;;;;;6141640;23;20234;-90
2022/05/07 06:52:23;;;;;;;15.00;13.73;;;12.90;99.90;;;;;;6141840;23;20195;-91
2022/05/07 06:54:51;;;;;;;14.10;12.93;;;13.10;99.90;;;;;;6114401;23;20291;-91
2022/05/07 06:57:24;;;;;;;14.27;12.98;;;13.30;99.90;;;;;;6142515;23;20198;-90
2022/05/07 06:59:51;;;;;;;14.27;12.87;;;13.50;99.90;;;;;;6130464;23;20709;-87
2022/05/07 07:02:20;;;;;;;13.97;12.67;;;13.70;99.90;;;;;;6135315;23;20513;-85
2022/05/07 07:04:47;;;;;;;13.20;12.17;;;13.90;99.90;;;;;;6140943;23;20537;-84
2022/05/07 07:07:14;;;;;;;13.10;12.00;;;14.00;99.90;;;;;;6145155;23;20517;-83
2022/05/07 07:09:41;;;;;;;13.10;12.00;;;14.30;99.90;;;;;;6137392;23;20459;-83
2022/05/07 07:12:10;;;;;;;12.47;11.47;;;14.80;99.90;;;;;;6139845;23;20452;-88
2022/05/07 07:14:39;;;;;;;11.37;10.47;;;15.50;99.90;;;;;;6135381;23;20503;-84
2022/05/07 07:17:06;;;;;;;10.70;9.80;;;16.50;99.90;;;;;;6143115;23;20791;-86
2022/05/07 07:19:34;;;;;;;11.13;10.23;;;17.40;99.90;;;;;;6142127;23;20433;-88
2022/05/07 07:22:01;;;;;;;9.93;9.13;;;18.40;99.90;;;;;;6142718;23;20429;-88
2022/05/07 07:24:29;;;;;;;11.50;10.53;;;19.10;99.90;;;;;;6135443;23;20487;-92
2022/05/07 07:26:55;;;;;;;12.63;11.63;;;19.70;99.90;;;;;;6146108;23;20804;-91
2022/05/07 07:29:23;;;;;;;11.20;10.20;;;19.70;99.90;;;;;;6144475;23;20493;-91
2022/05/07 07:31:51;;;;;;;10.53;9.73;;;20.20;99.90;;;;;;6136994;23;20446;-91
2022/05/07 07:34:18;;;;;;;10.13;9.40;;;20.50;99.90;;;;;;6141274;23;20555;-91
2022/05/07 07:36:46;;;;;;;10.37;9.40;;;21.20;99.90;;;;;;6141469;23;20430;-90
2022/05/07 07:39:13;;;;;;;10.47;9.57;;;21.90;99.90;;;;;;6145704;23;20475;-91
2022/05/07 07:41:39;;;;;;;10.40;9.60;;;22.40;99.90;;;;;;6135959;23;20443;-90
2022/05/07 07:44:07;;;;;;;9.50;8.90;;;22.90;99.90;;;;;;6142777;23;20502;-92
2022/05/07 07:49:20;;;;;;;10.00;9.30;;;23.80;99.90;;;;;;6136976;23;20430;-89
2022/05/07 07:51:47;;;;;;;9.77;9.03;;;23.60;98.90;;;;;;6141416;23;20515;-87
2022/05/07 07:54:14;;;;;;;8.90;8.10;;;23.40;98.50;;;;;;6143902;23;20453;-93
2022/05/07 07:56:43;;;;;;;9.40;8.60;;;23.60;96.20;;;;;;6143979;23;20448;-80
2022/05/07 07:59:10;;;;;;;8.83;8.13;;;23.30;95.40;;;;;;6143156;23;20464;-87
2022/05/07 08:01:38;;;;;;;8.27;7.57;;;23.50;96.10;;;;;;6137394;23;20846;-91
2022/05/07 08:04:05;;;;;;;7.20;6.60;;;23.90;95.50;;;;;;6151950;23;20537;-90
2022/05/07 08:06:38;;;;;;;9.60;8.90;;;24.50;94.60;;;;;;6151957;23;20832;-92
2022/05/07 08:11:55;;;;;;;9.13;8.40;;;24.50;94.00;;;;;;6144138;23;20440;-91
2022/05/07 08:14:22;;;;;;;9.17;8.47;;;24.80;93.80;;;;;;6141236;23;21064;-89
2022/05/07 08:16:49;;;;;;;8.57;7.87;;;25.30;92.60;;;;;;6140454;23;20443;-88
2022/05/07 08:19:16;;;;;;;9.27;8.40;;;25.90;91.60;;;;;;6131742;23;20440;-88
2022/05/07 08:21:45;;;;;;;10.07;9.30;;;26.20;90.70;;;;;;6146400;23;20437;-88
2022/05/07 08:24:12;;;;;;;8.80;8.20;;;26.40;89.90;;;;;;6144656;23;20800;-88
2022/05/07 08:26:39;;;;;;;9.07;8.37;;;26.30;90.30;;;;;;6145820;23;20502;-88
2022/05/07 08:29:06;;;;;;;10.10;9.20;;;26.80;88.50;;;;;;6144913;23;20503;-93
2022/05/07 08:31:33;;;;;;;8.53;7.87;;;26.60;85.40;;;;;;6148525;23;20445;-86
2022/05/07 08:34:00;;;;;;;10.40;9.57;;;27.00;86.30;;;;;;6125683;23;20793;-89
2022/05/07 08:36:30;;;;;;;9.83;9.13;;;27.50;84.60;;;;;;6139913;23;20528;-87
2022/05/07 08:38:58;;;;;;;10.93;10.13;;;27.70;83.40;;;;;;6128212;23;20814;-87
2022/05/07 08:41:26;;;;;;;12.10;11.10;;;27.20;83.20;;;;;;6140998;23;20870;-87
2022/05/07 08:43:53;;;;;;;11.47;10.47;;;26.80;83.20;;;;;;6135650;23;20480;-86
2022/05/07 08:46:20;;;;;;;12.63;11.63;;;26.90;83.00;;;;;;6139937;23;20464;-91
2022/05/07 08:48:50;;;;;;;11.53;10.57;;;26.50;83.20;;;;;;6122928;23;20441;-89
2022/05/07 08:51:20;;;;;;;10.83;10.03;;;26.40;84.30;;;;;;6148816;23;20449;-90
2022/05/07 08:53:53;;;;;;;9.33;8.70;;;26.30;83.70;;;;;;6166976;23;20457;-91
2022/05/07 08:56:22;;;;;;;11.07;10.37;;;26.10;84.60;;;;;;6165847;23;20441;-93
2022/05/07 08:58:50;;;;;;;11.13;10.30;;;26.40;83.60;;;;;;6156419;23;20449;-89
2022/05/07 09:01:18;;;;;;;10.97;10.23;;;26.50;84.30;;;;;;6145700;23;20524;-91
2022/05/07 09:03:47;;;;;;;10.90;10.00;;;26.10;85.10;;;;;;6147070;23;20470;-92
2022/05/07 09:06:22;;;;;;;10.10;9.30;;;26.50;82.80;;;;;;6140312;23;20435;-88
2022/05/07 09:08:50;;;;;;;8.03;7.43;;;26.70;84.20;;;;;;6146027;23;20443;-88
2022/05/07 09:11:18;;;;;;;7.83;7.23;;;27.50;80.00;;;;;;6147807;23;20435;-87
2022/05/07 09:13:47;;;;;;;7.00;6.50;;;28.10;76.50;;;;;;6147976;23;20453;-90
2022/05/07 09:16:15;;;;;;;6.87;6.33;;;28.70;75.60;;;;;;6144023;23;20444;-94
2022/05/07 09:18:48;;;;;;;5.77;5.33;;;29.20;73.30;;;;;;6137999;23;20918;-87
2022/05/07 09:21:19;;;;;;;5.90;5.50;;;29.80;71.80;;;;;;6144059;23;20572;-89
2022/05/07 09:23:48;;;;;;;7.20;6.67;;;30.40;67.80;;;;;;6139692;23;20558;-89
2022/05/07 09:26:26;;;;;;;7.70;7.10;;;30.10;67.20;;;;;;6141689;23;20428;-87
2022/05/07 09:28:54;;;;;;;6.87;6.27;;;30.40;66.60;;;;;;6146193;23;20528;-89
2022/05/07 09:31:27;;;;;;;6.87;6.37;;;30.30;66.10;;;;;;6143362;23;20429;-88
2022/05/07 09:35:47;;;;;;;6.97;6.37;;;30.10;67.00;;;;;;6141298;23;20542;-87
2022/05/07 09:36:43;;;;;;;6.17;5.67;;;30.00;67.00;;;;;;6151586;23;20516;-87
2022/05/07 09:39:13;;;;;;;6.97;6.47;;;30.50;65.30;;;;;;6141880;23;20445;-89
2022/05/07 09:41:42;;;;;;;6.17;5.77;;;31.10;63.50;;;;;;6150344;23;20448;-88
2022/05/07 09:44:12;;;;;;;7.60;7.10;;;30.80;63.80;;;;;;6145048;23;21047;-85
2022/05/07 09:46:40;;;;;;;8.07;7.57;;;31.60;62.20;;;;;;6145309;23;20507;-88
2022/05/07 09:49:08;;;;;;;6.87;6.03;;;32.00;60.70;;;;;;6141277;23;20441;-89
2022/05/07 09:51:36;;;;;;;5.80;5.40;;;32.10;59.20;;;;;;6137558;23;20800;-89
2022/05/07 09:59:35;;;;;;;4.13;3.77;;;31.50;57.00;;;;;;6146653;23;20441;-89
2022/05/07 10:02:12;;;;;;;5.10;4.73;;;31.90;55.80;;;;;;6140670;23;20460;-89
2022/05/07 10:05:20;;;;;;;3.73;3.40;;;31.90;56.40;;;;;;6152867;23;20959;-93
2022/05/07 10:08:12;;;;;;;4.30;4.00;;;31.70;56.40;;;;;;6096090;23;20539;-92
2022/05/07 10:10:41;;;;;;;4.83;4.43;;;32.50;54.50;;;;;;6130202;23;20511;-93
2022/05/07 10:13:08;;;;;;;4.10;3.80;;;33.00;52.20;;;;;;6142556;23;20975;-92
2022/05/07 10:15:37;;;;;;;3.87;3.50;;;32.70;52.10;;;;;;6133506;23;20432;-94
2022/05/07 10:18:07;;;;;;;3.60;3.30;;;32.50;52.00;;;;;;6141669;23;20444;-92
2022/05/07 10:20:39;;;;;;;3.97;3.60;;;32.30;51.40;;;;;;6142194;23;20439;-92
2022/05/07 10:23:08;;;;;;;3.77;3.57;;;32.10;51.80;;;;;;6144488;23;20482;-91
2022/05/07 10:25:36;;;;;;;3.83;3.40;;;32.10;52.10;;;;;;6138961;23;20559;-92
2022/05/07 10:28:13;;;;;;;5.93;3.33;;;31.80;52.60;;;;;;6130337;23;20471;-89
2022/05/07 10:30:52;;;;;;;3.30;3.00;;;31.20;50.50;;;;;;6139367;23;21773;-82
2022/05/07 10:33:20;;;;;;;2.80;2.60;;;31.20;50.80;;;;;;6142266;23;20963;-93
2022/05/07 10:35:49;;;;;;;3.17;2.87;;;31.80;50.70;;;;;;6144944;23;20435;-92
2022/05/07 10:38:26;;;;;;;2.90;2.70;;;32.10;50.70;;;;;;6142391;23;20471;-93
2022/05/07 10:40:57;;;;;;;5.33;3.00;;;32.30;48.60;;;;;;6138653;23;20456;-88
2022/05/07 10:43:26;;;;;;;3.70;3.27;;;32.40;48.80;;;;;;6138102;23;21203;-88
2022/05/07 10:45:57;;;;;;;2.90;2.70;;;31.80;49.40;;;;;;6142391;23;20481;-89
2022/05/07 10:48:24;;;;;;;3.10;2.90;;;32.00;50.20;;;;;;6137910;23;20522;-85
2022/05/07 10:50:52;;;;;;;5.23;3.47;;;32.30;49.20;;;;;;6140907;23;21037;-85
2022/05/07 10:53:22;;;;;;;2.53;2.37;;;32.40;48.40;;;;;;6136520;23;20504;-86
2022/05/07 10:55:52;;;;;;;3.67;3.37;;;32.60;49.40;;;;;;6140183;23;20858;-87
2022/05/07 10:58:30;;;;;;;4.03;3.23;;;33.30;48.80;;;;;;6139170;23;20438;-86
2022/05/07 11:00:59;;;;;;;2.70;2.50;;;33.50;47.80;;;;;;6142916;23;20507;-85
2022/05/07 11:03:27;;;;;;;2.43;2.23;;;33.50;45.90;;;;;;6121855;23;20468;-86
2022/05/07 11:06:01;;;;;;;5.27;2.60;;;32.40;45.70;;;;;;6150876;23;20439;-86
2022/05/07 11:08:30;;;;;;;2.80;2.60;;;31.10;47.60;;;;;;6146923;23;20521;-85
2022/05/07 11:11:05;;;;;;;4.10;2.37;;;30.00;47.80;;;;;;6140736;23;20998;-85
2022/05/07 11:13:33;;;;;;;3.10;2.10;;;29.30;50.00;;;;;;6134847;23;20458;-85
2022/05/07 11:16:08;;;;;;;3.60;2.03;;;28.80;50.10;;;;;;6141123;23;20432;-85
2022/05/07 11:18:35;;;;;;;2.73;2.50;;;28.40;50.40;;;;;;6147292;23;20440;-86
2022/05/07 11:21:03;;;;;;;2.63;2.43;;;27.90;51.30;;;;;;6136833;23;20549;-86
2022/05/07 11:23:35;;;;;;;2.27;1.90;;;27.30;51.90;;;;;;6143518;23;20456;-86
2022/05/07 11:26:11;;;;;;;4.63;1.93;;;26.90;52.20;;;;;;6136935;23;20433;-86
2022/05/07 11:28:39;;;;;;;2.60;2.40;;;26.70;52.60;;;;;;6135644;23;20476;-86
2022/05/07 11:31:08;;;;;;;2.90;1.80;;;26.70;52.80;;;;;;6143699;23;20806;-86
2022/05/07 11:33:35;;;;;;;2.77;2.10;;;27.40;51.90;;;;;;6149670;23;20457;-86
2022/05/07 11:36:05;;;;;;;3.80;2.10;;;27.60;51.30;;;;;;6138162;23;20471;-87
2022/05/07 11:38:33;;;;;;;3.50;2.37;;;27.90;51.50;;;;;;6144366;23;21047;-89
2022/05/07 11:41:14;;;;;;;2.40;2.10;;;28.10;50.80;;;;;;6114724;23;20466;-89
2022/05/07 11:46:27;;;;;;;2.27;2.10;;;28.30;50.10;;;;;;6158056;23;20425;-79
2022/05/07 11:48:54;;;;;;;2.40;2.17;;;28.80;51.00;;;;;;6154046;23;20464;-76
2022/05/07 11:51:26;;;;;;;4.87;2.53;;;29.30;49.90;;;;;;6126931;23;20442;-82
2022/05/07 11:53:53;;;;;;;2.37;2.17;;;30.00;50.30;;;;;;6151578;23;20523;-80
2022/05/07 11:56:20;;;;;;;2.60;2.10;;;30.30;48.80;;;;;;6145480;23;20441;-81
2022/05/07 11:58:49;;;;;;;2.97;2.23;;;30.50;47.90;;;;;;6140151;23;20506;-78
2022/05/07 12:01:22;;;;;;;2.53;2.30;;;30.40;48.60;;;;;;6135000;23;20487;-80
2022/05/07 12:03:51;;;;;;;2.70;2.37;;;30.50;48.50;;;;;;6143082;23;20449;-82
2022/05/07 12:06:25;;;;;;;3.17;2.67;;;30.70;48.30;;;;;;6146016;23;20501;-80
2022/05/07 12:08:59;;;;;;;2.07;1.97;;;30.70;47.40;;;;;;6149699;23;20472;-80
2022/05/07 12:11:26;;;;;;;2.70;2.00;;;29.80;47.70;;;;;;6147395;23;20448;-82
2022/05/07 12:13:54;;;;;;;1.90;1.80;;;29.60;49.40;;;;;;6121535;23;20450;-82
2022/05/07 12:19:08;;;;;;;3.20;2.17;;;29.10;47.90;;;;;;6136067;23;21056;-82
2022/05/07 12:29:52;;;;;;;2.23;1.77;;;30.40;47.20;;;;;;6129203;23;20547;-81
2022/05/07 12:32:20;;;;;;;2.10;1.90;;;30.60;46.90;;;;;;6142940;23;20436;-82
2022/05/07 12:34:49;;;;;;;1.90;1.80;;;30.70;47.10;;;;;;6128388;23;20943;-82
2022/05/07 12:37:16;;;;;;;2.07;1.60;;;30.70;47.50;;;;;;6146429;23;20501;-82
2022/05/07 12:39:44;;;;;;;2.17;1.97;;;30.40;46.40;;;;;;6148082;23;20993;-82
2022/05/07 12:42:13;;;;;;;2.03;1.90;;;30.90;47.30;;;;;;6140775;23;20464;-81
2022/05/07 12:44:45;;;;;;;1.90;1.40;;;30.80;46.00;;;;;;6133173;23;20468;-82
2022/05/07 12:47:14;;;;;;;2.70;1.80;;;30.20;46.00;;;;;;6135572;23;20954;-82
2022/05/07 12:49:41;;;;;;;1.97;1.70;;;30.20;47.40;;;;;;6144421;23;20939;-82
2022/05/07 12:52:10;;;;;;;1.70;1.60;;;30.40;46.50;;;;;;6146384;23;20440;-82
2022/05/07 12:54:37;;;;;;;1.90;1.80;;;30.50;46.50;;;;;;6140130;23;20450;-82
2022/05/07 12:57:05;;;;;;;1.53;1.43;;;30.70;47.00;;;;;;6141209;23;20468;-82
2022/05/07 12:59:32;;;;;;;2.00;1.90;;;30.60;46.20;;;;;;6124574;23;20442;-81
2022/05/07 13:01:58;;;;;;;2.40;2.20;;;30.50;45.80;;;;;;6137744;23;20479;-82
2022/05/07 13:04:26;;;;;;;2.60;1.73;;;30.80;46.70;;;;;;6137593;23;20495;-82
2022/05/07 13:06:53;;;;;;;3.20;1.67;;;30.90;45.30;;;;;;6140457;23;20436;-82
2022/05/07 13:09:21;;;;;;;1.87;1.73;;;31.20;46.30;;;;;;6145551;23;20938;-82
2022/05/07 13:11:49;;;;;;;2.37;1.90;;;31.60;45.70;;;;;;6136256;23;20527;-81
2022/05/07 13:14:17;;;;;;;2.23;1.80;;;32.30;45.60;;;;;;6139252;23;20449;-82
2022/05/07 13:16:44;;;;;;;2.90;1.90;;;32.80;43.90;;;;;;6142165;23;20437;-82